Latest Weather Observations for Alice Springs Airport

IDD60801

Issued at 6:01 pm CST Friday 20 October 2017 (issued every 30 minutes, with the page automatically refreshed every 10 minutes)

About weather observations | Map of weather stations | Latest weather observations for NT | Other Formats
Station Details ID: 015590 Name: ALICE SPRINGS AIRPORT Lat: -23.80 Lon: 133.89 Height: 546.0 m
Data from the previous 72 hours. | See also: Recent months at Alice Springs Airport
Date/Time
CST
Temp
°C
App
Temp
°C
Dew
Point
°C
Rel
Hum
%
Delta-T
°C
Wind Press
QNH
hPa
Press
MSL
hPa
Rain since
9am
mm
Dir  Spd
km/h
Gust
km/h
Spd
kts
Gust
kts
20/06:00pm 29.7 23.5 9.3 28 11.6 SE 32 41 17 22 1020.3 1017.6 0.0
20/05:40pm 29.8 23.8 8.8 27 11.9 SE 30 48 16 26 1020.2 1017.5 0.0
20/05:30pm 30.1 23.8 9.1 27 12.0 SE 32 44 17 24 1020.1 1017.4 0.0
20/05:00pm 30.6 24.1 8.9 26 12.4 SE 33 48 18 26 1019.9 1017.1 0.0
20/04:30pm 30.8 24.5 9.6 27 12.2 SE 33 48 18 26 1019.9 1017.1 0.0
20/04:24pm 31.0 25.3 9.8 27 12.3 SE 30 48 16 26 1019.9 1017.1 0.0
20/04:00pm 31.0 24.9 9.8 27 12.3 SE 32 41 17 22 1019.9 1017.1 0.0
20/03:46pm 31.7 26.2 10.4 27 12.5 ESE 30 48 16 26 1019.9 1017.1 0.0
20/03:30pm 31.4 25.2 10.2 27 12.4 ESE 33 48 18 26 1019.9 1017.1 0.0
20/03:00pm 31.4 25.7 11.2 29 12.0 SE 32 44 17 24 1020.1 1017.4 0.0
20/02:30pm 31.1 25.5 11.5 30 11.6 ESE 32 46 17 25 1020.4 1017.7 0.0
20/02:10pm 31.2 25.5 11.1 29 11.9 SE 32 50 17 27 1020.6 1017.9 0.0
20/02:00pm 31.1 25.5 11.5 30 11.7 ESE 32 46 17 25 1020.7 1018.0 0.0
20/01:30pm 30.9 24.8 11.8 31 11.4 ESE 35 48 19 26 1020.9 1018.2 0.0
20/01:00pm 30.1 24.5 11.6 32 11.0 ESE 32 41 17 22 1021.4 1018.7 0.0
20/12:48pm 30.4 25.3 11.9 32 11.1 ESE 30 52 16 28 1021.8 1019.1 0.0
20/12:30pm 30.3 25.1 12.7 34 10.6 ESE 32 48 17 26 1021.9 1019.2 0.0
20/12:17pm 29.4 23.9 12.3 34 10.2 ESE 33 48 18 26 1022.2 1019.5 0.0
20/12:01pm 28.9 24.1 11.5 34 10.3 SE 28 46 15 25 1022.4 1019.7 0.0
20/12:00pm 29.0 23.8 11.6 34 10.3 SE 30 46 16 25 1022.4 1019.7 0.0
20/11:34am 28.1 23.7 12.8 38 9.2 SE 28 46 15 25 1022.8 1020.1 0.0
20/11:30am 29.1 24.6 13.7 38 9.4 ESE 30 46 16 25 1022.9 1020.2 0.0
20/11:00am 27.2 22.6 12.4 40 8.8 SE 28 41 15 22 1023.2 1020.6 0.0
20/10:30am 26.4 22.0 12.8 43 8.1 SE 28 41 15 22 1023.5 1020.9 0.0
20/10:00am 25.4 20.8 12.3 44 7.7 SE 28 37 15 20 1023.9 1021.2 0.0
20/09:30am 24.8 19.9 12.4 46 7.3 ESE 30 39 16 21 1024.0 1021.3 0.0
20/09:00am 24.0 19.4 12.3 48 6.8 SE 28 44 15 24 1024.2 1021.5 0.0
20/08:30am 23.5 18.2 12.5 50 6.4 SE 32 41 17 22 1024.1 1021.4 0.0
20/08:00am 22.3 17.9 11.7 51 6.1 SSE 26 35 14 19 1023.8 1021.1 0.0
20/07:30am 22.2 17.5 11.9 52 5.9 SSE 28 37 15 20 1023.8 1021.1 0.0
20/07:00am 21.8 17.5 12.1 54 5.6 SE 26 33 14 18 1023.4 1020.8 0.0
20/06:30am 21.5 18.5 12.1 55 5.4 SSE 19 28 10 15 1023.0 1020.3 0.0
20/06:00am 21.3 18.3 11.9 55 5.4 SSE 19 26 10 14 1022.6 1019.9 0.0
20/05:30am 22.1 18.6 12.1 53 5.8 SE 22 32 12 17 1022.1 1019.4 0.0
20/05:00am 22.4 19.8 12.1 52 6.0 SSE 17 26 9 14 1021.8 1019.1 0.0
20/04:30am 22.6 19.9 11.7 50 6.3 SSE 17 26 9 14 1021.3 1018.6 0.0
20/04:00am 23.0 19.7 11.7 49 6.5 SSE 20 33 11 18 1020.8 1018.1 0.0
20/03:30am 23.4 18.9 11.5 47 6.8 SSE 26 35 14 19 1020.5 1017.8 0.0
20/03:00am 24.3 18.1 11.3 44 7.5 SSE 35 48 19 26 1020.3 1017.6 0.0
20/02:30am 26.1 22.0 11.5 40 8.5 SE 24 33 13 18 1019.9 1017.1 0.0
20/02:00am 26.5 22.9 11.8 40 8.6 SE 22 33 12 18 1019.5 1016.8 0.0
20/01:30am 26.7 22.3 11.6 39 8.8 SSE 26 35 14 19 1019.6 1016.9 0.0
20/01:00am 27.0 22.5 11.5 38 9.1 SSE 26 35 14 19 1019.5 1016.8 0.0
20/12:30am 27.5 22.9 11.1 36 9.5 SSE 26 37 14 20 1019.6 1016.9 0.0
20/12:00am 28.0 23.2 10.2 33 10.2 SSE 26 37 14 20 1019.7 1017.0 0.0
 
Date/Time
CST
Temp
°C
App
Temp
°C
Dew
Point
°C
Rel
Hum
%
Delta-T
°C
Wind Press
QNH
hPa
Press
MSL
hPa
Rain since
9am
mm
Dir  Spd
km/h
Gust
km/h
Spd
kts
Gust
kts
19/11:30pm 28.7 24.0 9.4 30 11.0 SSE 24 37 13 20 1019.7 1017.0 0.0
19/11:00pm 28.9 24.4 8.6 28 11.4 SSE 22 33 12 18 1019.6 1016.9 0.0
19/10:30pm 29.2 24.1 7.7 26 11.9 SSE 24 33 13 18 1019.4 1016.7 0.0
19/10:00pm 29.7 24.4 7.0 24 12.5 SSE 24 32 13 17 1019.1 1016.4 0.0
19/09:30pm 30.0 25.4 6.6 23 12.8 SSE 20 33 11 18 1018.7 1016.0 0.0
19/09:00pm 30.6 25.8 5.8 21 13.4 SSE 20 32 11 17 1018.2 1015.4 0.0
19/08:30pm 30.5 26.3 5.7 21 13.4 SSE 17 22 9 12 1017.5 1014.8 0.0
19/08:00pm 30.8 27.1 4.5 19 14.0 SSE 13 17 7 9 1016.9 1014.2 0.0
19/07:30pm 31.7 27.6 4.5 18 14.5 SE 15 20 8 11 1016.5 1013.7 0.0
19/07:00pm 32.3 27.4 4.2 17 15.0 SE 19 26 10 14 1016.0 1013.2 0.0
19/06:30pm 33.4 27.6 4.2 16 15.7 SE 24 37 13 20 1015.4 1012.7 0.0
19/06:00pm 34.1 27.2 2.8 14 16.5 SE 28 41 15 22 1015.0 1012.3 0.0
19/05:30pm 34.6 28.2 3.2 14 16.7 ESE 26 35 14 19 1014.6 1011.8 0.0
19/05:00pm 35.2 27.7 3.7 14 16.9 ESE 32 44 17 24 1014.4 1011.6 0.0
19/04:30pm 35.9 29.1 3.2 13 17.5 ESE 28 37 15 20 1014.2 1011.4 0.0
19/04:00pm 35.6 28.8 3.0 13 17.4 ESE 28 35 15 19 1014.1 1011.3 0.0
19/03:30pm 35.2 29.3 3.7 14 16.9 ESE 24 44 13 24 1014.3 1011.5 0.0
19/03:11pm 35.8 29.2 4.2 14 17.2 SE 28 46 15 25 1014.4 1011.6 0.0
19/03:00pm 35.2 30.0 3.7 14 16.9 ESE 20 35 11 19 1014.5 1011.7 0.0
19/02:30pm 35.1 29.1 3.6 14 16.9 ESE 24 35 13 19 1014.9 1012.1 0.0
19/02:03pm 35.8 29.4 5.1 15 16.9 ESE 28 48 15 26 1015.1 1012.4 0.0
19/02:00pm 35.3 29.6 4.8 15 16.7 ESE 24 41 13 22 1015.2 1012.5 0.0
19/01:30pm 35.1 30.3 4.6 15 16.6 SE 19 28 10 15 1015.5 1012.8 0.0
19/01:00pm 35.9 29.9 5.2 15 16.9 ESE 26 44 14 24 1016.0 1013.2 0.0
19/12:30pm 34.8 28.8 5.3 16 16.2 ESE 26 43 14 23 1016.4 1013.6 0.0
19/12:00pm 34.6 28.2 5.1 16 16.1 SE 28 41 15 22 1016.6 1013.8 0.0
19/11:30am 33.8 28.4 6.2 18 15.3 E 24 39 13 21 1017.0 1014.3 0.0
19/11:00am 32.8 27.7 6.2 19 14.7 SE 22 39 12 21 1017.2 1014.5 0.0
19/10:30am 32.6 27.1 6.0 19 14.6 E 24 37 13 20 1017.2 1014.5 0.0
19/10:00am 32.0 28.1 7.0 21 13.9 E 17 24 9 13 1017.2 1014.5 0.0
19/09:30am 31.2 28.4 7.0 22 13.4 ESE 11 26 6 14 1017.2 1014.5 0.0
19/09:00am 30.4 27.4 7.6 24 12.7 ESE 13 19 7 10 1017.0 1014.3 0.0
19/08:30am 28.5 25.1 6.0 24 12.1 ESE 13 19 7 10 1016.8 1014.1 0.0
19/08:00am 26.4 23.1 4.8 25 11.2 ESE 11 15 6 8 1016.3 1013.5 0.0
19/07:30am 24.0 21.3 3.9 27 10.1 ESE 7 9 4 5 1016.0 1013.2 0.0
19/07:00am 20.3 18.5 3.5 33 8.2 SW 2 6 1 3 1015.7 1013.0 0.0
19/06:30am 17.6 14.9 3.9 40 6.6 WSW 7 9 4 5 1015.3 1012.6 0.0
19/06:00am 16.7 13.7 4.1 43 6.1 W 9 11 5 6 1014.8 1012.0 0.0
19/05:30am 16.7 13.4 2.7 39 6.6 W 9 11 5 6 1014.6 1011.8 0.0
19/05:00am 16.8 13.9 2.8 39 6.6 SW 7 7 4 4 1014.2 1011.4 0.0
19/04:30am 17.7 15.7 2.5 36 7.1 ENE 2 6 1 3 1013.7 1011.0 0.0
19/04:00am 17.7 14.0 2.1 35 7.3 ENE 11 13 6 7 1013.2 1010.4 0.0
19/03:30am 18.5 16.1 2.4 34 7.6 NNE 4 7 2 4 1013.2 1010.4 0.0
19/03:00am 18.5 15.5 1.9 33 7.8 N 7 9 4 5 1013.4 1010.7 0.0
19/02:30am 18.7 15.7 2.1 33 7.8 NNW 7 9 4 5 1013.7 1011.0 0.0
19/02:00am 19.2 15.8 1.7 31 8.2 NW 9 9 5 5 1014.1 1011.3 0.0
19/01:30am 19.6 15.5 2.0 31 8.3 W 13 15 7 8 1014.2 1011.4 0.0
19/01:00am 19.5 15.3 1.9 31 8.3 W 13 15 7 8 1014.4 1011.6 0.0
19/12:30am 20.0 16.2 1.9 30 8.6 SW 11 13 6 7 1014.4 1011.6 0.0
19/12:00am 20.7 17.6 1.1 27 9.2 WSW 7 9 4 5 1014.5 1011.7 0.0
 
Date/Time
CST
Temp
°C
App
Temp
°C
Dew
Point
°C
Rel
Hum
%
Delta-T
°C
Wind Press
QNH
hPa
Press
MSL
hPa
Rain since
9am
mm
Dir  Spd
km/h
Gust
km/h
Spd
kts
Gust
kts
18/11:30pm 22.2 19.0 0.7 24 10.1 ENE 7 11 4 6 1014.5 1011.7 0.0
18/11:00pm 23.8 20.1 0.2 21 11.1 ENE 9 13 5 7 1014.4 1011.6 0.0
18/10:30pm 23.2 19.3 0.9 23 10.6 NE 11 13 6 7 1014.5 1011.7 0.0
18/10:00pm 23.6 20.4 0.7 22 10.9 ENE 7 9 4 5 1014.5 1011.7 0.0
18/09:30pm 24.7 21.1 0.3 20 11.6 SE 9 9 5 5 1014.3 1011.5 0.0
18/09:00pm 25.5 21.5 0.2 19 12.1 SSE 11 13 6 7 1014.0 1011.2 0.0
18/08:30pm 25.8 21.3 -0.3 18 12.4 SSE 13 15 7 8 1013.5 1010.8 0.0
18/08:00pm 26.7 22.2 -0.3 17 12.9 SSE 13 15 7 8 1013.2 1010.4 0.0
18/07:30pm 28.8 24.2 -1.3 14 14.3 SE 13 13 7 7 1012.8 1010.0 0.0
18/07:00pm 30.9 26.3 -0.7 13 15.4 SE 13 17 7 9 1012.3 1009.5 0.0
18/06:30pm 32.5 28.0 -0.5 12 16.3 SE 13 19 7 10 1011.9 1009.2 0.0
18/06:00pm 33.5 28.1 -1.0 11 17.0 SE 17 26 9 14 1011.4 1008.6 0.0
18/05:30pm 34.4 28.8 -0.3 11 17.4 SSE 19 33 10 18 1011.0 1008.2 0.0
18/05:00pm 34.7 28.9 -0.1 11 17.6 SSE 20 30 11 16 1010.7 1007.9 0.0
18/04:30pm 34.9 28.9 -1.2 10 17.9 SSE 20 32 11 17 1010.6 1007.8 0.0
18/04:00pm 34.8 29.8 -1.3 10 17.9 SE 15 28 8 15 1010.6 1007.8 0.0
18/03:30pm 35.4 29.5 -0.8 10 18.2 SSE 20 32 11 17 1010.7 1007.9 0.0
18/03:00pm 34.7 29.3 -1.4 10 17.9 SSW 17 24 9 13 1010.9 1008.1 0.0
18/02:30pm 35.0 29.8 0.2 11 17.7 S 17 26 9 14 1011.2 1008.4 0.0
18/02:00pm 34.4 28.8 -0.3 11 17.4 SE 19 26 10 14 1011.6 1008.8 0.0
18/01:30pm 32.8 28.1 -1.5 11 16.7 SW 13 22 7 12 1012.3 1009.5 0.0
18/01:00pm 34.1 28.8 -0.5 11 17.3 ESE 17 26 9 14 1012.6 1009.8 0.0
18/12:30pm 33.5 28.7 0.2 12 16.8 S 15 22 8 12 1012.9 1010.1 0.0
18/12:00pm 34.3 29.8 2.0 13 16.8 SE 15 28 8 15 1013.2 1010.4 0.0
18/11:30am 32.7 29.3 1.7 14 15.9 SE 9 19 5 10 1013.6 1010.9 0.0
18/11:00am 32.0 28.3 2.1 15 15.4 SE 11 24 6 13 1014.1 1011.3 0.0
18/10:30am 32.1 28.1 3.1 16 15.2 NNE 13 19 7 10 1014.5 1011.7 0.0
18/10:00am 30.8 26.1 3.0 17 14.4 ENE 17 28 9 15 1014.7 1011.9 0.0
18/09:30am 31.0 26.2 4.7 19 14.0 NE 19 28 10 15 1014.9 1012.1 0.0
18/09:00am 29.5 24.1 6.2 23 12.6 ENE 24 32 13 17 1015.1 1012.4 0.0
18/08:30am 28.2 23.7 6.9 26 11.6 NE 20 28 11 15 1015.1 1012.4 0.0
18/08:00am 26.5 22.0 7.0 29 10.6 NE 20 28 11 15 1015.1 1012.4 0.0
18/07:30am 24.8 21.5 6.5 31 9.7 NE 13 17 7 9 1014.9 1012.1 0.0
18/07:00am 20.2 18.6 6.2 40 7.2 NNW 4 7 2 4 1014.9 1012.1 0.0
18/06:30am 16.6 14.3 4.9 46 5.7 NNW 6 7 3 4 1014.7 1011.9 0.0
18/06:00am 15.5 13.0 4.6 48 5.3 NNW 7 9 4 5 1014.5 1011.7 0.0
18/05:30am 15.5 12.6 4.6 48 5.3 NW 9 9 5 5 1014.3 1011.5 0.0
18/05:00am 15.2 12.2 4.0 47 5.3 WNW 9 11 5 6 1014.0 1011.2 0.0
18/04:30am 15.7 13.1 4.1 46 5.5 WNW 7 9 4 5 1013.5 1010.8 0.0
18/04:00am 16.4 14.0 4.4 45 5.8 W 6 9 3 5 1013.2 1010.4 0.0
18/03:30am 16.5 14.0 4.5 45 5.8 NNW 7 7 4 4 1013.1 1010.3 0.0
18/03:00am 16.5 13.5 4.2 44 5.9 NNW 9 11 5 6 1013.0 1010.2 0.0
18/02:30am 17.1 14.5 4.1 42 6.3 ESE 7 9 4 5 1013.0 1010.2 0.0
18/02:00am 17.6 15.9 3.9 40 6.6 SSE 2 7 1 4 1013.2 1010.4 0.0
18/01:30am 17.6 13.9 4.2 41 6.5 SSE 13 15 7 8 1013.3 1010.5 0.0
18/01:00am 17.7 15.5 3.6 39 6.8 S 4 11 2 6 1013.5 1010.8 0.0
18/12:30am 19.1 17.7 3.3 35 7.6 CALM 0 0 0 0 1013.6 1010.9 0.0
18/12:00am 19.7 17.1 3.4 34 7.9 E 6 7 3 4 1013.7 1011.0 0.0
 
Date/Time
CST
Temp
°C
App
Temp
°C
Dew
Point
°C
Rel
Hum
%
Delta-T
°C
Wind Press
QNH
hPa
Press
MSL
hPa
Rain since
9am
mm
Dir  Spd
km/h
Gust
km/h
Spd
kts
Gust
kts
17/11:30pm 21.7 18.7 3.9 31 8.8 E 9 11 5 6 1013.7 1011.0 0.0
17/11:00pm 20.7 17.5 3.0 31 8.6 NE 9 11 5 6 1013.7 1011.0 0.0
17/10:30pm 21.8 19.0 3.0 29 9.2 E 7 11 4 6 1013.6 1010.9 0.0
17/10:00pm 22.7 19.4 2.2 26 9.9 E 9 9 5 5 1013.5 1010.8 0.0
17/09:30pm 24.7 21.2 3.4 25 10.7 ESE 11 13 6 7 1013.4 1010.7 0.0
17/09:00pm 25.6 22.3 2.3 22 11.5 ESE 9 11 5 6 1013.2 1010.4 0.0
17/08:30pm 25.8 21.9 1.2 20 12.0 SE 11 13 6 7 1012.9 1010.1 0.0
17/08:00pm 26.3 21.9 0.1 18 12.5 SE 13 13 7 7 1012.3 1009.5 0.0
17/07:30pm 27.6 23.1 -0.5 16 13.4 SE 13 17 7 9 1011.8 1009.1 0.0
17/07:00pm 28.7 24.4 -1.4 14 14.3 SSE 11 15 6 8 1011.4 1008.6 0.0
17/06:30pm 31.2 26.3 -0.5 13 15.5 SE 15 19 8 10 1011.0 1008.2 0.0

Other Formats:

Comma delimited format used in spreadsheet applications
http://www.bom.gov.au/fwo/IDD60801/IDD60801.94326.axf

JavaScript Object Notation format (JSON) in row-major order
http://www.bom.gov.au/fwo/IDD60801/IDD60801.94326.json